sensor_id;sensor_type;location;lat;lon;timestamp;P1;durP1;ratioP1;P2;durP2;ratioP2
16137;SDS011;8174;43.550;5.206;2023-03-23T00:01:00;10.40;;;7.53;;
16137;SDS011;8174;43.550;5.206;2023-03-23T00:03:27;11.17;;;6.93;;
16137;SDS011;8174;43.550;5.206;2023-03-23T00:05:57;10.43;;;6.63;;
16137;SDS011;8174;43.550;5.206;2023-03-23T00:08:29;11.80;;;6.90;;
16137;SDS011;8174;43.550;5.206;2023-03-23T00:10:57;11.23;;;6.77;;
16137;SDS011;8174;43.550;5.206;2023-03-23T00:13:28;11.57;;;7.30;;
16137;SDS011;8174;43.550;5.206;2023-03-23T00:15:56;11.27;;;7.13;;
16137;SDS011;8174;43.550;5.206;2023-03-23T00:18:23;13.57;;;7.30;;
16137;SDS011;8174;43.550;5.206;2023-03-23T00:20:51;11.47;;;7.77;;
16137;SDS011;8174;43.550;5.206;2023-03-23T00:23:19;11.77;;;8.00;;
16137;SDS011;8174;43.550;5.206;2023-03-23T00:25:48;13.70;;;7.97;;
16137;SDS011;8174;43.550;5.206;2023-03-23T00:28:16;11.57;;;8.17;;
16137;SDS011;8174;43.550;5.206;2023-03-23T00:30:54;12.87;;;7.90;;
16137;SDS011;8174;43.550;5.206;2023-03-23T00:33:22;12.80;;;8.80;;
16137;SDS011;8174;43.550;5.206;2023-03-23T00:35:51;10.53;;;7.50;;
16137;SDS011;8174;43.550;5.206;2023-03-23T00:38:19;15.00;;;8.80;;
16137;SDS011;8174;43.550;5.206;2023-03-23T00:40:46;10.07;;;6.90;;
16137;SDS011;8174;43.550;5.206;2023-03-23T00:43:14;10.53;;;6.90;;
16137;SDS011;8174;43.550;5.206;2023-03-23T00:45:42;13.90;;;7.17;;
16137;SDS011;8174;43.550;5.206;2023-03-23T00:48:11;12.50;;;7.20;;
16137;SDS011;8174;43.550;5.206;2023-03-23T00:50:38;10.20;;;6.47;;
16137;SDS011;8174;43.550;5.206;2023-03-23T00:53:06;11.23;;;6.60;;
16137;SDS011;8174;43.550;5.206;2023-03-23T00:55:33;13.03;;;7.70;;
16137;SDS011;8174;43.550;5.206;2023-03-23T00:58:00;12.63;;;7.83;;
16137;SDS011;8174;43.550;5.206;2023-03-23T01:00:28;12.23;;;8.47;;
16137;SDS011;8174;43.550;5.206;2023-03-23T01:02:55;13.07;;;7.87;;
16137;SDS011;8174;43.550;5.206;2023-03-23T01:05:24;13.27;;;7.63;;
16137;SDS011;8174;43.550;5.206;2023-03-23T01:07:57;11.37;;;6.87;;
16137;SDS011;8174;43.550;5.206;2023-03-23T01:10:24;10.57;;;7.30;;
16137;SDS011;8174;43.550;5.206;2023-03-23T01:12:52;8.93;;;6.83;;
16137;SDS011;8174;43.550;5.206;2023-03-23T01:15:20;12.13;;;6.93;;
16137;SDS011;8174;43.550;5.206;2023-03-23T01:17:47;13.33;;;7.10;;
16137;SDS011;8174;43.550;5.206;2023-03-23T01:20:15;11.10;;;6.83;;
16137;SDS011;8174;43.550;5.206;2023-03-23T01:22:44;11.10;;;6.40;;
16137;SDS011;8174;43.550;5.206;2023-03-23T01:25:12;17.17;;;7.90;;
16137;SDS011;8174;43.550;5.206;2023-03-23T01:27:40;11.43;;;7.20;;
16137;SDS011;8174;43.550;5.206;2023-03-23T01:30:08;10.90;;;6.87;;
16137;SDS011;8174;43.550;5.206;2023-03-23T01:32:36;11.97;;;7.03;;
16137;SDS011;8174;43.550;5.206;2023-03-23T01:35:03;12.20;;;7.70;;
16137;SDS011;8174;43.550;5.206;2023-03-23T01:37:31;12.30;;;8.17;;
16137;SDS011;8174;43.550;5.206;2023-03-23T01:39:59;11.40;;;7.93;;
16137;SDS011;8174;43.550;5.206;2023-03-23T01:42:30;13.70;;;7.97;;
16137;SDS011;8174;43.550;5.206;2023-03-23T01:47:52;10.30;;;6.37;;
16137;SDS011;8174;43.550;5.206;2023-03-23T01:50:22;10.87;;;6.67;;
16137;SDS011;8174;43.550;5.206;2023-03-23T01:52:51;9.80;;;7.03;;
16137;SDS011;8174;43.550;5.206;2023-03-23T01:55:21;12.93;;;7.40;;
16137;SDS011;8174;43.550;5.206;2023-03-23T01:57:49;10.40;;;7.60;;
16137;SDS011;8174;43.550;5.206;2023-03-23T02:00:17;10.33;;;7.27;;
16137;SDS011;8174;43.550;5.206;2023-03-23T02:02:46;9.07;;;7.00;;
16137;SDS011;8174;43.550;5.206;2023-03-23T02:05:14;10.63;;;6.73;;
16137;SDS011;8174;43.550;5.206;2023-03-23T02:07:44;9.03;;;6.83;;
16137;SDS011;8174;43.550;5.206;2023-03-23T02:10:12;10.20;;;6.60;;
16137;SDS011;8174;43.550;5.206;2023-03-23T02:12:41;11.53;;;6.57;;
16137;SDS011;8174;43.550;5.206;2023-03-23T02:15:09;10.23;;;6.30;;
16137;SDS011;8174;43.550;5.206;2023-03-23T02:17:38;9.57;;;6.07;;
16137;SDS011;8174;43.550;5.206;2023-03-23T02:20:11;8.73;;;5.90;;
16137;SDS011;8174;43.550;5.206;2023-03-23T02:22:53;8.27;;;5.53;;
16137;SDS011;8174;43.550;5.206;2023-03-23T02:25:28;8.43;;;5.73;;
16137;SDS011;8174;43.550;5.206;2023-03-23T02:28:07;9.63;;;5.90;;
16137;SDS011;8174;43.550;5.206;2023-03-23T02:30:39;9.87;;;6.40;;
16137;SDS011;8174;43.550;5.206;2023-03-23T02:33:20;11.83;;;6.77;;
16137;SDS011;8174;43.550;5.206;2023-03-23T02:35:56;12.33;;;6.73;;
16137;SDS011;8174;43.550;5.206;2023-03-23T02:38:25;12.83;;;6.70;;
16137;SDS011;8174;43.550;5.206;2023-03-23T02:40:55;11.40;;;6.37;;
16137;SDS011;8174;43.550;5.206;2023-03-23T02:43:23;14.13;;;7.00;;
16137;SDS011;8174;43.550;5.206;2023-03-23T02:45:52;8.77;;;6.40;;
16137;SDS011;8174;43.550;5.206;2023-03-23T02:48:22;12.20;;;6.60;;
16137;SDS011;8174;43.550;5.206;2023-03-23T02:50:51;10.93;;;6.87;;
16137;SDS011;8174;43.550;5.206;2023-03-23T02:53:20;12.00;;;6.63;;
16137;SDS011;8174;43.550;5.206;2023-03-23T02:55:48;10.27;;;6.93;;
16137;SDS011;8174;43.550;5.206;2023-03-23T02:58:18;11.83;;;6.60;;
16137;SDS011;8174;43.550;5.206;2023-03-23T03:00:48;11.90;;;7.00;;
16137;SDS011;8174;43.550;5.206;2023-03-23T03:03:16;13.57;;;6.87;;
16137;SDS011;8174;43.550;5.206;2023-03-23T03:05:47;11.00;;;6.77;;
16137;SDS011;8174;43.550;5.206;2023-03-23T03:08:21;12.43;;;7.43;;
16137;SDS011;8174;43.550;5.206;2023-03-23T03:10:52;12.43;;;7.80;;
16137;SDS011;8174;43.550;5.206;2023-03-23T03:13:23;12.97;;;8.30;;
16137;SDS011;8174;43.550;5.206;2023-03-23T03:15:53;11.97;;;7.90;;
16137;SDS011;8174;43.550;5.206;2023-03-23T03:18:22;14.03;;;8.03;;
16137;SDS011;8174;43.550;5.206;2023-03-23T03:20:53;15.03;;;8.40;;
16137;SDS011;8174;43.550;5.206;2023-03-23T03:23:22;13.30;;;8.43;;
16137;SDS011;8174;43.550;5.206;2023-03-23T03:25:49;22.47;;;9.07;;
16137;SDS011;8174;43.550;5.206;2023-03-23T03:28:18;10.50;;;8.40;;
16137;SDS011;8174;43.550;5.206;2023-03-23T03:30:47;12.53;;;8.80;;
16137;SDS011;8174;43.550;5.206;2023-03-23T03:33:15;13.20;;;9.53;;
16137;SDS011;8174;43.550;5.206;2023-03-23T03:35:42;11.73;;;8.77;;
16137;SDS011;8174;43.550;5.206;2023-03-23T03:38:12;15.90;;;9.17;;
16137;SDS011;8174;43.550;5.206;2023-03-23T03:40:39;12.93;;;8.60;;
16137;SDS011;8174;43.550;5.206;2023-03-23T03:43:06;13.23;;;8.57;;
16137;SDS011;8174;43.550;5.206;2023-03-23T03:45:34;16.10;;;9.37;;
16137;SDS011;8174;43.550;5.206;2023-03-23T03:48:01;13.93;;;8.93;;
16137;SDS011;8174;43.550;5.206;2023-03-23T03:50:29;11.90;;;8.40;;
16137;SDS011;8174;43.550;5.206;2023-03-23T03:52:57;12.57;;;8.50;;
16137;SDS011;8174;43.550;5.206;2023-03-23T03:55:26;11.70;;;9.00;;
16137;SDS011;8174;43.550;5.206;2023-03-23T03:57:54;15.20;;;8.70;;
16137;SDS011;8174;43.550;5.206;2023-03-23T04:00:22;13.43;;;9.10;;
16137;SDS011;8174;43.550;5.206;2023-03-23T04:02:50;14.40;;;9.03;;
16137;SDS011;8174;43.550;5.206;2023-03-23T04:05:19;12.97;;;8.57;;
16137;SDS011;8174;43.550;5.206;2023-03-23T04:07:47;12.47;;;8.67;;
16137;SDS011;8174;43.550;5.206;2023-03-23T04:10:16;14.53;;;9.20;;
16137;SDS011;8174;43.550;5.206;2023-03-23T04:12:46;11.50;;;8.53;;
16137;SDS011;8174;43.550;5.206;2023-03-23T04:15:13;14.33;;;9.20;;
16137;SDS011;8174;43.550;5.206;2023-03-23T04:17:44;15.13;;;8.20;;
16137;SDS011;8174;43.550;5.206;2023-03-23T04:20:12;13.10;;;9.00;;
16137;SDS011;8174;43.550;5.206;2023-03-23T04:22:40;12.83;;;8.57;;
16137;SDS011;8174;43.550;5.206;2023-03-23T04:25:09;12.30;;;8.50;;
16137;SDS011;8174;43.550;5.206;2023-03-23T04:27:37;13.63;;;8.97;;
16137;SDS011;8174;43.550;5.206;2023-03-23T04:30:06;12.13;;;8.50;;
16137;SDS011;8174;43.550;5.206;2023-03-23T04:32:34;13.93;;;9.10;;
16137;SDS011;8174;43.550;5.206;2023-03-23T04:35:06;13.73;;;8.60;;
16137;SDS011;8174;43.550;5.206;2023-03-23T04:37:33;15.53;;;9.17;;
16137;SDS011;8174;43.550;5.206;2023-03-23T04:40:01;14.93;;;8.50;;
16137;SDS011;8174;43.550;5.206;2023-03-23T04:42:36;13.10;;;8.63;;
16137;SDS011;8174;43.550;5.206;2023-03-23T04:45:04;13.77;;;8.70;;
16137;SDS011;8174;43.550;5.206;2023-03-23T04:47:33;12.53;;;9.07;;
16137;SDS011;8174;43.550;5.206;2023-03-23T04:50:06;12.80;;;8.60;;
16137;SDS011;8174;43.550;5.206;2023-03-23T04:52:33;14.57;;;9.10;;
16137;SDS011;8174;43.550;5.206;2023-03-23T04:55:02;12.20;;;8.83;;
16137;SDS011;8174;43.550;5.206;2023-03-23T04:57:30;16.50;;;8.57;;
16137;SDS011;8174;43.550;5.206;2023-03-23T04:59:58;12.53;;;8.87;;
16137;SDS011;8174;43.550;5.206;2023-03-23T05:02:25;13.40;;;9.40;;
16137;SDS011;8174;43.550;5.206;2023-03-23T05:04:56;15.13;;;9.10;;
16137;SDS011;8174;43.550;5.206;2023-03-23T05:07:24;15.50;;;9.13;;
16137;SDS011;8174;43.550;5.206;2023-03-23T05:09:51;16.90;;;9.77;;
16137;SDS011;8174;43.550;5.206;2023-03-23T05:12:19;15.37;;;9.43;;
16137;SDS011;8174;43.550;5.206;2023-03-23T05:14:49;20.43;;;10.00;;
16137;SDS011;8174;43.550;5.206;2023-03-23T05:17:16;17.57;;;10.57;;
16137;SDS011;8174;43.550;5.206;2023-03-23T05:19:43;24.87;;;9.83;;
16137;SDS011;8174;43.550;5.206;2023-03-23T05:22:13;16.50;;;9.53;;
16137;SDS011;8174;43.550;5.206;2023-03-23T05:24:41;16.53;;;9.13;;
16137;SDS011;8174;43.550;5.206;2023-03-23T05:27:09;17.10;;;9.07;;
16137;SDS011;8174;43.550;5.206;2023-03-23T05:29:36;22.73;;;9.40;;
16137;SDS011;8174;43.550;5.206;2023-03-23T05:32:06;16.20;;;9.13;;
16137;SDS011;8174;43.550;5.206;2023-03-23T05:34:33;15.80;;;8.60;;
16137;SDS011;8174;43.550;5.206;2023-03-23T05:37:01;14.43;;;8.50;;
16137;SDS011;8174;43.550;5.206;2023-03-23T05:39:30;13.37;;;8.63;;
16137;SDS011;8174;43.550;5.206;2023-03-23T05:41:57;19.13;;;9.30;;
16137;SDS011;8174;43.550;5.206;2023-03-23T05:44:25;14.43;;;9.50;;
16137;SDS011;8174;43.550;5.206;2023-03-23T05:46:52;15.03;;;9.47;;
16137;SDS011;8174;43.550;5.206;2023-03-23T05:49:20;13.63;;;9.00;;
16137;SDS011;8174;43.550;5.206;2023-03-23T05:51:47;15.77;;;9.90;;
16137;SDS011;8174;43.550;5.206;2023-03-23T05:54:15;14.40;;;9.50;;
16137;SDS011;8174;43.550;5.206;2023-03-23T05:56:45;17.50;;;10.43;;
16137;SDS011;8174;43.550;5.206;2023-03-23T05:59:14;19.33;;;9.93;;
16137;SDS011;8174;43.550;5.206;2023-03-23T06:01:41;17.90;;;9.50;;
16137;SDS011;8174;43.550;5.206;2023-03-23T06:04:08;22.73;;;10.43;;
16137;SDS011;8174;43.550;5.206;2023-03-23T06:06:36;14.27;;;9.40;;
16137;SDS011;8174;43.550;5.206;2023-03-23T06:09:04;18.27;;;9.53;;
16137;SDS011;8174;43.550;5.206;2023-03-23T06:11:31;15.87;;;9.43;;
16137;SDS011;8174;43.550;5.206;2023-03-23T06:14:00;19.80;;;9.07;;
16137;SDS011;8174;43.550;5.206;2023-03-23T06:16:28;19.90;;;8.93;;
16137;SDS011;8174;43.550;5.206;2023-03-23T06:18:55;17.67;;;9.63;;
16137;SDS011;8174;43.550;5.206;2023-03-23T06:21:25;16.37;;;9.20;;
16137;SDS011;8174;43.550;5.206;2023-03-23T06:23:54;16.47;;;8.70;;
16137;SDS011;8174;43.550;5.206;2023-03-23T06:26:21;18.40;;;7.93;;
16137;SDS011;8174;43.550;5.206;2023-03-23T06:28:51;16.10;;;8.53;;
16137;SDS011;8174;43.550;5.206;2023-03-23T06:31:19;14.50;;;8.20;;
16137;SDS011;8174;43.550;5.206;2023-03-23T06:33:47;17.53;;;9.40;;
16137;SDS011;8174;43.550;5.206;2023-03-23T06:36:15;23.17;;;12.83;;
16137;SDS011;8174;43.550;5.206;2023-03-23T06:38:42;15.70;;;9.17;;
16137;SDS011;8174;43.550;5.206;2023-03-23T06:41:10;14.80;;;8.53;;
16137;SDS011;8174;43.550;5.206;2023-03-23T06:43:37;20.50;;;8.53;;
16137;SDS011;8174;43.550;5.206;2023-03-23T06:46:05;15.17;;;8.27;;
16137;SDS011;8174;43.550;5.206;2023-03-23T06:48:34;14.83;;;8.57;;
16137;SDS011;8174;43.550;5.206;2023-03-23T06:51:01;18.30;;;8.03;;
16137;SDS011;8174;43.550;5.206;2023-03-23T06:53:29;19.43;;;8.10;;
16137;SDS011;8174;43.550;5.206;2023-03-23T06:55:56;17.63;;;7.90;;
16137;SDS011;8174;43.550;5.206;2023-03-23T06:58:23;14.17;;;7.90;;
16137;SDS011;8174;43.550;5.206;2023-03-23T07:00:53;19.43;;;8.00;;
16137;SDS011;8174;43.550;5.206;2023-03-23T07:03:21;13.27;;;6.90;;
16137;SDS011;8174;43.550;5.206;2023-03-23T07:05:50;15.33;;;7.77;;
16137;SDS011;8174;43.550;5.206;2023-03-23T07:08:17;16.57;;;7.63;;
16137;SDS011;8174;43.550;5.206;2023-03-23T08:58:12;8.95;;;3.53;;
16137;SDS011;8174;43.550;5.206;2023-03-23T09:00:39;14.68;;;4.28;;
16137;SDS011;8174;43.550;5.206;2023-03-23T09:03:06;5.25;;;3.50;;
16137;SDS011;8174;43.550;5.206;2023-03-23T09:05:33;8.38;;;4.22;;
16137;SDS011;8174;43.550;5.206;2023-03-23T09:08:04;12.38;;;4.30;;
16137;SDS011;8174;43.550;5.206;2023-03-23T09:10:31;7.85;;;4.60;;
16137;SDS011;8174;43.550;5.206;2023-03-23T09:12:58;6.90;;;4.15;;
16137;SDS011;8174;43.550;5.206;2023-03-23T09:15:27;8.40;;;3.83;;
16137;SDS011;8174;43.550;5.206;2023-03-23T09:17:54;12.25;;;4.07;;
16137;SDS011;8174;43.550;5.206;2023-03-23T09:20:23;14.65;;;4.05;;
16137;SDS011;8174;43.550;5.206;2023-03-23T09:22:51;8.57;;;4.20;;
16137;SDS011;8174;43.550;5.206;2023-03-23T09:25:19;10.18;;;4.80;;
16137;SDS011;8174;43.550;5.206;2023-03-23T09:27:48;8.27;;;4.53;;
16137;SDS011;8174;43.550;5.206;2023-03-23T09:30:18;6.82;;;3.47;;
16137;SDS011;8174;43.550;5.206;2023-03-23T09:32:47;8.38;;;4.20;;
16137;SDS011;8174;43.550;5.206;2023-03-23T09:35:15;8.98;;;3.53;;
16137;SDS011;8174;43.550;5.206;2023-03-23T09:37:42;6.18;;;3.50;;
16137;SDS011;8174;43.550;5.206;2023-03-23T09:40:11;7.05;;;3.40;;
16137;SDS011;8174;43.550;5.206;2023-03-23T09:45:29;7.35;;;3.72;;
16137;SDS011;8174;43.550;5.206;2023-03-23T09:48:06;8.93;;;3.97;;
16137;SDS011;8174;43.550;5.206;2023-03-23T09:50:34;8.02;;;3.58;;
16137;SDS011;8174;43.550;5.206;2023-03-23T09:53:05;5.72;;;3.55;;
16137;SDS011;8174;43.550;5.206;2023-03-23T09:55:35;9.70;;;3.55;;
16137;SDS011;8174;43.550;5.206;2023-03-23T09:58:08;9.68;;;4.40;;
16137;SDS011;8174;43.550;5.206;2023-03-23T10:00:37;5.93;;;3.08;;
16137;SDS011;8174;43.550;5.206;2023-03-23T10:03:10;5.95;;;3.00;;
16137;SDS011;8174;43.550;5.206;2023-03-23T10:05:41;8.07;;;2.80;;
16137;SDS011;8174;43.550;5.206;2023-03-23T10:08:10;4.30;;;3.20;;
16137;SDS011;8174;43.550;5.206;2023-03-23T10:10:42;7.10;;;3.13;;
16137;SDS011;8174;43.550;5.206;2023-03-23T10:13:14;6.97;;;4.25;;
16137;SDS011;8174;43.550;5.206;2023-03-23T10:15:44;6.93;;;3.60;;
16137;SDS011;8174;43.550;5.206;2023-03-23T10:18:15;7.00;;;3.78;;
16137;SDS011;8174;43.550;5.206;2023-03-23T10:20:46;6.57;;;3.30;;
16137;SDS011;8174;43.550;5.206;2023-03-23T10:23:24;6.03;;;3.10;;
16137;SDS011;8174;43.550;5.206;2023-03-23T10:26:01;7.78;;;3.30;;
16137;SDS011;8174;43.550;5.206;2023-03-23T10:28:34;6.88;;;3.20;;
16137;SDS011;8174;43.550;5.206;2023-03-23T10:31:02;6.57;;;3.00;;
16137;SDS011;8174;43.550;5.206;2023-03-23T10:33:33;5.40;;;3.30;;
16137;SDS011;8174;43.550;5.206;2023-03-23T10:36:04;4.82;;;3.20;;
16137;SDS011;8174;43.550;5.206;2023-03-23T10:38:34;7.18;;;3.03;;
16137;SDS011;8174;43.550;5.206;2023-03-23T10:41:04;6.57;;;2.83;;
16137;SDS011;8174;43.550;5.206;2023-03-23T10:43:33;7.65;;;3.35;;
16137;SDS011;8174;43.550;5.206;2023-03-23T10:46:01;4.35;;;2.60;;
16137;SDS011;8174;43.550;5.206;2023-03-23T10:48:29;7.10;;;2.90;;
16137;SDS011;8174;43.550;5.206;2023-03-23T10:51:00;7.15;;;2.85;;
16137;SDS011;8174;43.550;5.206;2023-03-23T10:53:29;6.10;;;3.03;;
16137;SDS011;8174;43.550;5.206;2023-03-23T10:55:58;7.15;;;2.80;;
16137;SDS011;8174;43.550;5.206;2023-03-23T10:58:27;4.75;;;2.78;;
16137;SDS011;8174;43.550;5.206;2023-03-23T11:00:55;5.25;;;3.10;;
16137;SDS011;8174;43.550;5.206;2023-03-23T11:06:10;6.30;;;2.42;;
16137;SDS011;8174;43.550;5.206;2023-03-23T11:08:46;4.22;;;2.55;;
16137;SDS011;8174;43.550;5.206;2023-03-23T11:11:15;5.63;;;2.70;;
16137;SDS011;8174;43.550;5.206;2023-03-23T11:13:43;5.88;;;2.05;;
16137;SDS011;8174;43.550;5.206;2023-03-23T11:16:21;5.47;;;2.80;;
16137;SDS011;8174;43.550;5.206;2023-03-23T11:18:49;4.20;;;2.33;;
16137;SDS011;8174;43.550;5.206;2023-03-23T11:21:19;8.27;;;3.28;;
16137;SDS011;8174;43.550;5.206;2023-03-23T11:23:48;5.45;;;2.22;;
16137;SDS011;8174;43.550;5.206;2023-03-23T11:26:17;4.10;;;2.38;;
16137;SDS011;8174;43.550;5.206;2023-03-23T11:28:46;5.90;;;2.40;;
16137;SDS011;8174;43.550;5.206;2023-03-23T11:31:15;8.40;;;2.50;;
16137;SDS011;8174;43.550;5.206;2023-03-23T11:33:47;4.95;;;2.85;;
16137;SDS011;8174;43.550;5.206;2023-03-23T11:36:16;3.38;;;2.30;;
16137;SDS011;8174;43.550;5.206;2023-03-23T11:38:45;4.97;;;2.47;;
16137;SDS011;8174;43.550;5.206;2023-03-23T11:41:16;3.97;;;2.00;;
16137;SDS011;8174;43.550;5.206;2023-03-23T11:43:46;6.72;;;3.45;;
16137;SDS011;8174;43.550;5.206;2023-03-23T11:46:17;6.75;;;3.97;;
16137;SDS011;8174;43.550;5.206;2023-03-23T11:48:47;4.78;;;2.28;;
16137;SDS011;8174;43.550;5.206;2023-03-23T11:51:17;4.60;;;2.03;;
16137;SDS011;8174;43.550;5.206;2023-03-23T11:53:49;5.85;;;2.13;;
16137;SDS011;8174;43.550;5.206;2023-03-23T11:56:19;7.35;;;2.92;;
16137;SDS011;8174;43.550;5.206;2023-03-23T11:58:50;4.70;;;2.25;;
16137;SDS011;8174;43.550;5.206;2023-03-23T12:01:24;5.15;;;3.03;;
16137;SDS011;8174;43.550;5.206;2023-03-23T12:03:58;5.63;;;2.35;;
16137;SDS011;8174;43.550;5.206;2023-03-23T12:06:29;4.85;;;2.30;;
16137;SDS011;8174;43.550;5.206;2023-03-23T12:09:02;7.15;;;3.13;;
16137;SDS011;8174;43.550;5.206;2023-03-23T12:11:36;5.22;;;2.70;;
16137;SDS011;8174;43.550;5.206;2023-03-23T12:14:12;6.60;;;3.30;;
16137;SDS011;8174;43.550;5.206;2023-03-23T12:16:47;5.38;;;2.58;;
16137;SDS011;8174;43.550;5.206;2023-03-23T12:19:17;3.63;;;1.90;;
16137;SDS011;8174;43.550;5.206;2023-03-23T12:21:48;8.15;;;2.50;;
16137;SDS011;8174;43.550;5.206;2023-03-23T12:24:21;5.22;;;2.88;;
16137;SDS011;8174;43.550;5.206;2023-03-23T12:26:52;5.03;;;2.47;;
16137;SDS011;8174;43.550;5.206;2023-03-23T12:29:25;5.28;;;2.40;;
16137;SDS011;8174;43.550;5.206;2023-03-23T12:32:01;5.40;;;2.25;;
16137;SDS011;8174;43.550;5.206;2023-03-23T12:34:34;5.95;;;1.83;;
16137;SDS011;8174;43.550;5.206;2023-03-23T12:37:08;8.75;;;3.17;;
16137;SDS011;8174;43.550;5.206;2023-03-23T12:39:52;4.95;;;3.08;;
16137;SDS011;8174;43.550;5.206;2023-03-23T12:42:23;9.10;;;5.35;;
16137;SDS011;8174;43.550;5.206;2023-03-23T12:44:52;6.72;;;3.17;;
16137;SDS011;8174;43.550;5.206;2023-03-23T12:47:29;4.72;;;2.45;;
16137;SDS011;8174;43.550;5.206;2023-03-23T12:50:00;6.35;;;3.40;;
16137;SDS011;8174;43.550;5.206;2023-03-23T12:52:30;4.13;;;2.00;;
16137;SDS011;8174;43.550;5.206;2023-03-23T12:55:01;6.97;;;2.00;;
16137;SDS011;8174;43.550;5.206;2023-03-23T12:57:31;6.22;;;3.58;;
16137;SDS011;8174;43.550;5.206;2023-03-23T13:00:02;6.45;;;3.30;;
16137;SDS011;8174;43.550;5.206;2023-03-23T13:02:39;4.50;;;2.30;;
16137;SDS011;8174;43.550;5.206;2023-03-23T13:05:08;4.63;;;2.63;;
16137;SDS011;8174;43.550;5.206;2023-03-23T13:07:37;6.55;;;3.28;;
16137;SDS011;8174;43.550;5.206;2023-03-23T13:10:12;4.53;;;1.92;;
16137;SDS011;8174;43.550;5.206;2023-03-23T13:12:44;5.20;;;3.75;;
16137;SDS011;8174;43.550;5.206;2023-03-23T13:15:17;4.57;;;2.45;;
16137;SDS011;8174;43.550;5.206;2023-03-23T13:17:49;5.40;;;2.22;;
16137;SDS011;8174;43.550;5.206;2023-03-23T13:20:27;5.32;;;2.15;;
16137;SDS011;8174;43.550;5.206;2023-03-23T13:22:58;8.23;;;2.60;;
16137;SDS011;8174;43.550;5.206;2023-03-23T13:25:35;8.75;;;3.78;;
16137;SDS011;8174;43.550;5.206;2023-03-23T13:28:12;10.60;;;3.53;;
16137;SDS011;8174;43.550;5.206;2023-03-23T13:30:40;7.35;;;3.08;;
16137;SDS011;8174;43.550;5.206;2023-03-23T13:33:11;7.18;;;3.22;;
16137;SDS011;8174;43.550;5.206;2023-03-23T13:35:41;4.80;;;2.15;;
16137;SDS011;8174;43.550;5.206;2023-03-23T13:38:12;7.82;;;2.50;;
16137;SDS011;8174;43.550;5.206;2023-03-23T13:40:43;5.22;;;3.08;;
16137;SDS011;8174;43.550;5.206;2023-03-23T13:43:11;5.28;;;2.60;;
16137;SDS011;8174;43.550;5.206;2023-03-23T13:45:43;6.82;;;3.58;;
16137;SDS011;8174;43.550;5.206;2023-03-23T13:48:18;5.55;;;2.30;;
16137;SDS011;8174;43.550;5.206;2023-03-23T13:50:50;5.63;;;3.22;;
16137;SDS011;8174;43.550;5.206;2023-03-23T13:53:22;6.50;;;3.42;;
16137;SDS011;8174;43.550;5.206;2023-03-23T13:56:03;7.78;;;2.88;;
16137;SDS011;8174;43.550;5.206;2023-03-23T13:58:30;6.30;;;3.15;;
16137;SDS011;8174;43.550;5.206;2023-03-23T14:01:02;7.57;;;2.88;;
16137;SDS011;8174;43.550;5.206;2023-03-23T14:03:36;4.57;;;2.30;;
16137;SDS011;8174;43.550;5.206;2023-03-23T14:06:06;7.03;;;3.13;;
16137;SDS011;8174;43.550;5.206;2023-03-23T14:08:38;9.48;;;4.32;;
16137;SDS011;8174;43.550;5.206;2023-03-23T14:11:14;6.63;;;2.70;;
16137;SDS011;8174;43.550;5.206;2023-03-23T14:13:44;6.43;;;3.33;;
16137;SDS011;8174;43.550;5.206;2023-03-23T14:16:15;10.60;;;2.75;;
16137;SDS011;8174;43.550;5.206;2023-03-23T14:18:47;7.32;;;2.30;;
16137;SDS011;8174;43.550;5.206;2023-03-23T14:21:16;8.32;;;2.38;;
16137;SDS011;8174;43.550;5.206;2023-03-23T14:23:44;9.40;;;2.63;;
16137;SDS011;8174;43.550;5.206;2023-03-23T14:26:17;6.55;;;2.25;;
16137;SDS011;8174;43.550;5.206;2023-03-23T14:28:50;6.90;;;2.60;;
16137;SDS011;8174;43.550;5.206;2023-03-23T14:31:19;5.32;;;2.85;;
16137;SDS011;8174;43.550;5.206;2023-03-23T14:33:48;6.95;;;3.65;;
16137;SDS011;8174;43.550;5.206;2023-03-23T14:36:19;5.55;;;2.35;;
16137;SDS011;8174;43.550;5.206;2023-03-23T14:38:47;5.78;;;2.47;;
16137;SDS011;8174;43.550;5.206;2023-03-23T14:41:14;6.97;;;3.72;;
16137;SDS011;8174;43.550;5.206;2023-03-23T14:43:42;8.90;;;2.63;;
16137;SDS011;8174;43.550;5.206;2023-03-23T14:46:11;9.23;;;2.85;;
16137;SDS011;8174;43.550;5.206;2023-03-23T14:48:39;5.30;;;2.33;;
16137;SDS011;8174;43.550;5.206;2023-03-23T14:51:07;7.28;;;3.30;;
16137;SDS011;8174;43.550;5.206;2023-03-23T14:53:44;5.03;;;2.85;;
16137;SDS011;8174;43.550;5.206;2023-03-23T14:56:13;6.50;;;2.58;;
16137;SDS011;8174;43.550;5.206;2023-03-23T14:58:43;11.82;;;3.08;;
16137;SDS011;8174;43.550;5.206;2023-03-23T15:01:13;5.25;;;2.90;;
16137;SDS011;8174;43.550;5.206;2023-03-23T15:03:43;7.70;;;4.18;;
16137;SDS011;8174;43.550;5.206;2023-03-23T15:06:12;6.60;;;2.42;;
16137;SDS011;8174;43.550;5.206;2023-03-23T15:08:40;6.80;;;2.97;;
16137;SDS011;8174;43.550;5.206;2023-03-23T15:11:08;5.90;;;2.90;;
16137;SDS011;8174;43.550;5.206;2023-03-23T15:13:42;12.32;;;5.40;;
16137;SDS011;8174;43.550;5.206;2023-03-23T15:16:13;7.53;;;2.75;;
16137;SDS011;8174;43.550;5.206;2023-03-23T15:18:44;8.15;;;3.38;;
16137;SDS011;8174;43.550;5.206;2023-03-23T15:21:19;6.88;;;2.95;;
16137;SDS011;8174;43.550;5.206;2023-03-23T15:23:46;9.35;;;3.28;;
16137;SDS011;8174;43.550;5.206;2023-03-23T15:26:27;9.85;;;3.92;;
16137;SDS011;8174;43.550;5.206;2023-03-23T15:29:10;7.70;;;4.00;;
16137;SDS011;8174;43.550;5.206;2023-03-23T15:31:43;7.10;;;3.15;;
16137;SDS011;8174;43.550;5.206;2023-03-23T15:34:25;11.95;;;4.30;;
16137;SDS011;8174;43.550;5.206;2023-03-23T15:36:56;6.75;;;2.42;;
16137;SDS011;8174;43.550;5.206;2023-03-23T15:39:24;10.10;;;5.07;;
16137;SDS011;8174;43.550;5.206;2023-03-23T15:41:52;9.65;;;4.97;;
16137;SDS011;8174;43.550;5.206;2023-03-23T15:44:21;6.75;;;3.80;;
16137;SDS011;8174;43.550;5.206;2023-03-23T15:46:51;6.15;;;2.60;;
16137;SDS011;8174;43.550;5.206;2023-03-23T15:49:18;5.03;;;2.00;;
16137;SDS011;8174;43.550;5.206;2023-03-23T15:51:46;7.93;;;3.00;;
16137;SDS011;8174;43.550;5.206;2023-03-23T15:54:14;9.18;;;3.50;;
16137;SDS011;8174;43.550;5.206;2023-03-23T15:56:42;6.70;;;3.17;;
16137;SDS011;8174;43.550;5.206;2023-03-23T15:59:11;8.02;;;3.38;;
16137;SDS011;8174;43.550;5.206;2023-03-23T16:01:39;7.35;;;2.70;;
16137;SDS011;8174;43.550;5.206;2023-03-23T16:04:09;10.98;;;3.45;;
16137;SDS011;8174;43.550;5.206;2023-03-23T16:06:38;10.88;;;5.38;;
16137;SDS011;8174;43.550;5.206;2023-03-23T16:09:06;7.88;;;3.13;;
16137;SDS011;8174;43.550;5.206;2023-03-23T16:11:35;6.50;;;3.20;;
16137;SDS011;8174;43.550;5.206;2023-03-23T16:14:03;7.32;;;2.60;;
16137;SDS011;8174;43.550;5.206;2023-03-23T16:16:33;6.72;;;3.50;;
16137;SDS011;8174;43.550;5.206;2023-03-23T16:19:00;6.55;;;2.47;;
16137;SDS011;8174;43.550;5.206;2023-03-23T16:21:29;9.50;;;3.80;;
16137;SDS011;8174;43.550;5.206;2023-03-23T16:23:57;13.05;;;5.97;;
16137;SDS011;8174;43.550;5.206;2023-03-23T16:26:24;5.80;;;2.53;;
16137;SDS011;8174;43.550;5.206;2023-03-23T16:28:51;6.18;;;3.10;;
16137;SDS011;8174;43.550;5.206;2023-03-23T16:31:19;7.60;;;2.58;;
16137;SDS011;8174;43.550;5.206;2023-03-23T16:33:46;5.63;;;2.28;;
16137;SDS011;8174;43.550;5.206;2023-03-23T16:36:13;8.52;;;2.70;;
16137;SDS011;8174;43.550;5.206;2023-03-23T16:38:42;5.65;;;3.30;;
16137;SDS011;8174;43.550;5.206;2023-03-23T16:41:09;4.65;;;2.15;;
16137;SDS011;8174;43.550;5.206;2023-03-23T16:43:37;5.63;;;3.20;;
16137;SDS011;8174;43.550;5.206;2023-03-23T16:46:04;5.70;;;1.90;;
16137;SDS011;8174;43.550;5.206;2023-03-23T16:48:31;6.32;;;2.65;;
16137;SDS011;8174;43.550;5.206;2023-03-23T16:50:59;4.93;;;2.28;;
16137;SDS011;8174;43.550;5.206;2023-03-23T16:53:26;13.95;;;2.42;;
16137;SDS011;8174;43.550;5.206;2023-03-23T16:55:55;7.68;;;3.47;;
16137;SDS011;8174;43.550;5.206;2023-03-23T16:58:23;11.13;;;5.43;;
16137;SDS011;8174;43.550;5.206;2023-03-23T17:00:51;6.60;;;3.17;;
16137;SDS011;8174;43.550;5.206;2023-03-23T17:03:18;6.70;;;2.50;;
16137;SDS011;8174;43.550;5.206;2023-03-23T17:05:46;5.82;;;2.50;;